Harper, West Virginia
Current Conditions -  °F | °C
As of 3:40 PM on Wednesday 26 Nov 2014 (Local Time) from KBKW Reporting Station
Overcast Overcast  
Wind Chill: 36°   Ceiling: 400
Heat Index: 36°   Visibility: 10mi
Dew Point: 32°   Wind: 0mph
Humidity: 86%   Direction: NA
Pressure: 29.95"   Gusts: NA
Location:  37.8°N, 81.26°W
Report Text: KBKW 262040Z AUTO 00000KT 10SM OVC004 02/00 A2995 RMK AO2 T00220000
Loading
Personal Weather Stations






























Interactive Weather Map New forecast layout! Learn more

10-Day Weather Forecast

Advertisements
Track Severe Weather on mobile